createdAt,value
2019-02-21T00:00:23.769Z,0.00
2019-02-21T00:01:13.621Z,0.00
2019-02-21T00:02:13.538Z,0.00
2019-02-21T00:03:13.455Z,0.00
2019-02-21T00:04:13.370Z,0.00
2019-02-21T00:05:13.286Z,0.00
2019-02-21T00:06:13.203Z,0.00
2019-02-21T00:07:13.121Z,0.00
2019-02-21T00:08:13.038Z,0.00
2019-02-21T00:09:12.954Z,0.00
2019-02-21T00:10:12.873Z,0.00
2019-02-21T00:11:12.789Z,0.00
2019-02-21T00:12:12.735Z,0.00
2019-02-21T00:13:12.664Z,0.00
2019-02-21T00:14:12.533Z,0.00
2019-02-21T00:15:12.453Z,0.00
2019-02-21T00:16:12.370Z,0.00
2019-02-21T00:17:12.287Z,0.00
2019-02-21T00:18:12.202Z,0.00
2019-02-21T00:19:12.141Z,0.00
2019-02-21T00:20:12.037Z,0.00
2019-02-21T00:21:11.951Z,0.00
2019-02-21T00:22:11.876Z,0.00
2019-02-21T00:23:11.782Z,0.00
2019-02-21T00:24:11.794Z,0.00
2019-02-21T00:25:11.621Z,0.00
2019-02-21T00:26:11.542Z,0.00
2019-02-21T00:27:11.446Z,0.00
2019-02-21T00:28:11.368Z,0.00
2019-02-21T00:29:11.286Z,0.00
2019-02-21T00:30:11.216Z,0.00
2019-02-21T00:31:11.117Z,0.00
2019-02-21T00:32:11.043Z,0.00
2019-02-21T00:33:10.957Z,0.00
2019-02-21T00:34:10.865Z,0.00
2019-02-21T00:35:10.786Z,0.00
2019-02-21T00:36:10.704Z,0.00
2019-02-21T00:37:10.616Z,0.00
2019-02-21T00:38:10.540Z,0.00
2019-02-21T00:39:10.445Z,0.00
2019-02-21T00:40:10.368Z,0.00
2019-02-21T00:41:10.289Z,0.00
2019-02-21T00:42:10.205Z,0.00
2019-02-21T00:43:10.117Z,0.00
2019-02-21T00:44:10.033Z,0.00
2019-02-21T00:45:09.946Z,0.00
2019-02-21T00:46:09.863Z,0.00
2019-02-21T00:47:09.776Z,0.00
2019-02-21T00:48:09.700Z,0.00
2019-02-21T00:49:09.624Z,0.00
2019-02-21T00:50:09.537Z,0.00
2019-02-21T00:51:09.456Z,0.00
2019-02-21T00:52:09.366Z,0.00
2019-02-21T00:53:09.277Z,0.00
2019-02-21T00:54:09.199Z,0.00
2019-02-21T00:55:09.121Z,0.00
2019-02-21T00:56:09.030Z,0.00
2019-02-21T00:57:08.948Z,0.00
2019-02-21T00:58:08.862Z,0.00
2019-02-21T00:59:08.777Z,0.00
2019-02-21T01:00:08.694Z,0.00
2019-02-21T01:01:08.611Z,0.00
2019-02-21T01:02:08.531Z,0.00
2019-02-21T01:03:08.446Z,0.00
2019-02-21T01:04:08.356Z,0.00
2019-02-21T01:05:08.277Z,0.00
2019-02-21T01:06:08.192Z,0.00
2019-02-21T01:07:08.108Z,0.00
2019-02-21T01:08:08.039Z,0.00
2019-02-21T01:09:07.942Z,0.00
2019-02-21T01:10:07.860Z,0.00
2019-02-21T01:11:07.776Z,0.00
2019-02-21T01:12:07.688Z,0.00
2019-02-21T01:13:07.608Z,0.00
2019-02-21T01:14:07.524Z,0.00
2019-02-21T01:15:07.448Z,0.00
2019-02-21T01:16:07.359Z,0.00
2019-02-21T01:17:07.276Z,0.00
2019-02-21T01:18:07.189Z,0.00
2019-02-21T01:19:07.100Z,0.00
2019-02-21T01:20:07.025Z,0.00
2019-02-21T01:21:06.939Z,0.00
2019-02-21T01:22:06.851Z,0.00
2019-02-21T01:23:06.771Z,0.00
2019-02-21T01:24:06.684Z,0.00
2019-02-21T01:25:06.602Z,0.00
2019-02-21T01:26:06.520Z,0.00
2019-02-21T01:27:06.435Z,0.00
2019-02-21T01:28:06.351Z,0.00
2019-02-21T01:29:06.265Z,0.00
2019-02-21T01:30:06.185Z,0.00
2019-02-21T01:31:06.097Z,0.00
2019-02-21T01:32:06.015Z,0.00
2019-02-21T01:33:05.938Z,0.00
2019-02-21T01:34:05.849Z,0.00
2019-02-21T01:35:05.764Z,0.00
2019-02-21T01:36:05.684Z,0.00
2019-02-21T01:37:05.597Z,0.00
2019-02-21T01:38:05.516Z,0.00
2019-02-21T01:39:05.427Z,0.00
2019-02-21T01:40:05.349Z,0.00
2019-02-21T01:41:05.263Z,0.00
2019-02-21T01:42:05.176Z,0.00
2019-02-21T01:43:05.095Z,0.00
2019-02-21T01:44:05.013Z,0.00
2019-02-21T01:45:04.927Z,0.00
2019-02-21T01:46:04.841Z,0.00
2019-02-21T01:47:04.763Z,0.00
2019-02-21T01:48:04.676Z,0.00
2019-02-21T01:49:04.594Z,0.00
2019-02-21T01:50:04.508Z,0.00
2019-02-21T01:51:04.418Z,0.00
2019-02-21T01:52:04.335Z,0.00
2019-02-21T01:53:04.262Z,0.00
2019-02-21T01:54:04.173Z,0.00
2019-02-21T01:55:04.089Z,0.00
2019-02-21T01:56:04.005Z,0.00
2019-02-21T01:57:03.996Z,0.00
2019-02-21T01:58:03.841Z,0.00
2019-02-21T01:59:03.753Z,0.00
2019-02-21T02:00:03.678Z,0.00
2019-02-21T02:01:08.448Z,0.00
2019-02-21T02:02:03.503Z,0.00
2019-02-21T02:03:03.417Z,0.00
2019-02-21T02:04:03.337Z,0.00
2019-02-21T02:05:03.251Z,0.00
2019-02-21T02:06:03.169Z,0.00
2019-02-21T02:07:03.084Z,0.00
2019-02-21T02:08:03.000Z,0.00
2019-02-21T02:09:02.913Z,0.00
2019-02-21T02:10:02.834Z,0.00
2019-02-21T02:11:02.745Z,0.00
2019-02-21T02:12:02.661Z,0.00
2019-02-21T02:13:02.582Z,0.00
2019-02-21T02:14:02.491Z,0.00
2019-02-21T02:15:02.417Z,0.00
2019-02-21T02:16:02.341Z,0.00
2019-02-21T02:17:02.246Z,0.00
2019-02-21T02:18:02.170Z,0.00
2019-02-21T02:19:02.081Z,0.00
2019-02-21T02:20:02.052Z,0.00
2019-02-21T02:21:01.906Z,0.00
2019-02-21T02:22:01.829Z,0.00
2019-02-21T02:23:01.748Z,0.00
2019-02-21T02:24:01.658Z,0.00
2019-02-21T02:25:01.573Z,0.00
2019-02-21T02:26:01.490Z,0.00
2019-02-21T02:27:01.404Z,0.00
2019-02-21T02:28:01.326Z,0.00
2019-02-21T02:29:01.236Z,0.00
2019-02-21T02:30:01.150Z,0.00
2019-02-21T02:31:01.082Z,0.00
2019-02-21T02:32:00.985Z,0.00
2019-02-21T02:33:00.903Z,0.00
2019-02-21T02:34:00.814Z,0.00
2019-02-21T02:35:00.730Z,0.00
2019-02-21T02:36:00.646Z,0.00
2019-02-21T02:37:00.564Z,0.00
2019-02-21T02:38:00.481Z,0.00
2019-02-21T02:39:00.402Z,0.00
2019-02-21T02:40:00.493Z,0.00
2019-02-21T02:41:00.224Z,0.00
2019-02-21T02:42:00.140Z,0.00
2019-02-21T02:43:00.060Z,0.00
2019-02-21T02:43:59.975Z,0.00
2019-02-21T02:44:59.890Z,0.00
2019-02-21T02:45:59.808Z,0.00
2019-02-21T02:46:59.726Z,0.00
2019-02-21T02:47:59.641Z,0.00
2019-02-21T02:48:59.558Z,0.00
2019-02-21T02:49:59.475Z,0.00
2019-02-21T02:50:59.393Z,0.00
2019-02-21T02:51:59.299Z,0.00
2019-02-21T02:52:59.223Z,0.00
2019-02-21T02:53:59.134Z,0.00
2019-02-21T02:54:59.058Z,0.00
2019-02-21T02:55:58.970Z,0.00
2019-02-21T02:56:58.882Z,0.00
2019-02-21T02:57:58.801Z,0.00
2019-02-21T02:58:58.720Z,0.00
2019-02-21T02:59:58.630Z,0.00
2019-02-21T03:00:58.548Z,0.00
2019-02-21T03:01:58.465Z,0.00
2019-02-21T03:02:58.380Z,0.00
2019-02-21T03:03:58.301Z,0.00
2019-02-21T03:04:58.216Z,0.00
2019-02-21T03:05:58.125Z,0.00
2019-02-21T03:06:58.045Z,0.00
2019-02-21T03:07:57.965Z,0.00
2019-02-21T03:08:57.877Z,0.00
2019-02-21T03:09:57.797Z,0.00
2019-02-21T03:10:57.706Z,0.00
2019-02-21T03:11:57.637Z,0.00
2019-02-21T03:12:57.540Z,0.00
2019-02-21T03:13:57.457Z,0.00
2019-02-21T03:14:57.371Z,0.00
2019-02-21T03:15:57.287Z,0.00
2019-02-21T03:16:57.199Z,0.00
2019-02-21T03:17:57.120Z,0.00
2019-02-21T03:18:57.036Z,0.00
2019-02-21T03:19:56.952Z,0.00
2019-02-21T03:20:56.866Z,0.00
2019-02-21T03:21:56.785Z,0.00
2019-02-21T03:22:56.699Z,0.00
2019-02-21T03:23:56.615Z,0.00
2019-02-21T03:24:56.530Z,0.00
2019-02-21T03:25:56.443Z,0.00
2019-02-21T03:26:56.361Z,0.00
2019-02-21T03:27:56.277Z,0.00
2019-02-21T03:28:56.206Z,0.00
2019-02-21T03:29:56.113Z,0.00
2019-02-21T03:30:56.033Z,0.00
2019-02-21T03:31:56.472Z,0.00
2019-02-21T03:32:55.862Z,0.00
2019-02-21T03:33:55.774Z,0.00
2019-02-21T03:34:55.697Z,0.00
2019-02-21T03:35:55.643Z,0.00
2019-02-21T03:36:55.521Z,0.00
2019-02-21T03:37:55.441Z,0.00
2019-02-21T03:38:55.360Z,0.00
2019-02-21T03:39:55.269Z,0.00
2019-02-21T03:40:55.180Z,0.00
2019-02-21T03:41:55.128Z,0.00
2019-02-21T03:42:55.013Z,0.00
2019-02-21T03:43:54.932Z,0.00
2019-02-21T03:44:54.843Z,0.00
2019-02-21T03:45:54.759Z,0.00
2019-02-21T03:46:54.681Z,0.00
2019-02-21T03:47:54.596Z,0.00
2019-02-21T03:48:54.510Z,0.00
2019-02-21T03:49:54.430Z,0.00
2019-02-21T03:50:54.341Z,0.00
2019-02-21T03:51:54.256Z,0.00
2019-02-21T03:52:54.171Z,0.00
2019-02-21T03:53:54.085Z,0.00
2019-02-21T03:54:54.008Z,0.00
2019-02-21T03:55:53.926Z,0.00
2019-02-21T03:56:53.832Z,0.00
2019-02-21T03:57:53.752Z,0.00
2019-02-21T03:58:53.664Z,0.00
2019-02-21T03:59:53.589Z,0.00
2019-02-21T04:00:53.499Z,0.00
2019-02-21T04:02:04.526Z,0.00
2019-02-21T04:02:53.331Z,0.00
2019-02-21T04:03:53.246Z,0.00
2019-02-21T04:04:53.161Z,0.00
2019-02-21T04:05:53.072Z,0.00
2019-02-21T04:06:52.987Z,0.00
2019-02-21T04:07:52.913Z,0.00
2019-02-21T04:08:52.827Z,0.00
2019-02-21T04:09:52.739Z,0.00
2019-02-21T04:10:52.653Z,0.00
2019-02-21T04:11:52.569Z,0.00
2019-02-21T04:12:52.484Z,0.00
2019-02-21T04:13:52.403Z,0.00
2019-02-21T04:14:52.318Z,0.00
2019-02-21T04:15:52.233Z,0.00
2019-02-21T04:16:52.152Z,0.00
2019-02-21T04:17:52.062Z,0.00
2019-02-21T04:18:51.974Z,0.00
2019-02-21T04:19:51.894Z,0.00
2019-02-21T04:20:51.827Z,0.00
2019-02-21T04:21:51.727Z,0.00
2019-02-21T04:22:51.640Z,0.00
2019-02-21T04:23:51.562Z,0.00
2019-02-21T04:24:51.475Z,0.00
2019-02-21T04:25:51.390Z,0.00
2019-02-21T04:26:51.301Z,0.00
2019-02-21T04:27:51.241Z,0.00
2019-02-21T04:28:51.137Z,0.00
2019-02-21T04:29:51.053Z,0.00
2019-02-21T04:30:50.963Z,0.00
2019-02-21T04:31:50.884Z,0.00
2019-02-21T04:32:50.794Z,0.00
2019-02-21T04:33:50.716Z,0.00
2019-02-21T04:34:50.631Z,0.00
2019-02-21T04:35:50.545Z,0.00
2019-02-21T04:36:50.527Z,0.00
2019-02-21T04:37:50.375Z,0.00
2019-02-21T04:38:50.285Z,0.00
2019-02-21T04:39:50.210Z,0.00
2019-02-21T04:40:50.119Z,0.00
2019-02-21T04:41:50.040Z,0.00
2019-02-21T04:42:49.959Z,0.00
2019-02-21T04:43:49.867Z,0.00
2019-02-21T04:44:49.782Z,0.00
2019-02-21T04:45:49.699Z,0.00
2019-02-21T04:46:49.609Z,0.00
2019-02-21T04:47:49.526Z,0.00
2019-02-21T04:48:49.447Z,0.00
2019-02-21T04:49:49.362Z,0.00
2019-02-21T04:50:49.277Z,0.00
2019-02-21T04:51:49.194Z,0.00
2019-02-21T04:52:49.110Z,0.00
2019-02-21T04:53:49.023Z,0.00
2019-02-21T04:54:48.936Z,0.00
2019-02-21T04:55:48.858Z,0.00
2019-02-21T04:56:48.769Z,0.00
2019-02-21T04:57:48.688Z,0.00
2019-02-21T04:58:48.862Z,0.00
2019-02-21T04:59:48.511Z,0.00
2019-02-21T05:00:48.437Z,0.00
2019-02-21T05:01:48.351Z,0.00
2019-02-21T05:02:48.260Z,0.00
2019-02-21T05:03:48.177Z,0.00
2019-02-21T05:04:48.100Z,0.00
2019-02-21T05:05:48.007Z,0.00
2019-02-21T05:06:47.924Z,0.00
2019-02-21T05:07:47.838Z,0.00
2019-02-21T05:08:47.755Z,0.00
2019-02-21T05:09:57.307Z,0.00
2019-02-21T05:10:47.589Z,0.00
2019-02-21T05:11:47.502Z,0.00
2019-02-21T05:12:47.409Z,0.00
2019-02-21T05:13:47.330Z,0.00
2019-02-21T05:14:47.268Z,0.00
2019-02-21T05:15:47.162Z,0.00
2019-02-21T05:16:47.078Z,0.00
2019-02-21T05:17:47.024Z,0.00
2019-02-21T05:18:46.908Z,0.00
2019-02-21T05:19:46.836Z,0.00
2019-02-21T05:20:46.739Z,0.00
2019-02-21T05:21:46.656Z,0.00
2019-02-21T05:22:46.571Z,0.00
2019-02-21T05:23:46.485Z,0.00
2019-02-21T05:24:46.434Z,0.00
2019-02-21T05:25:46.316Z,0.00
2019-02-21T05:26:46.228Z,0.00
2019-02-21T05:27:46.145Z,0.00
2019-02-21T05:28:46.074Z,0.00
2019-02-21T05:29:45.980Z,0.00
2019-02-21T05:30:45.907Z,0.00
2019-02-21T05:31:45.808Z,0.00
2019-02-21T05:32:45.731Z,0.00
2019-02-21T05:33:45.641Z,0.00
2019-02-21T05:34:45.554Z,0.00
2019-02-21T05:35:45.468Z,0.00
2019-02-21T05:36:45.384Z,0.00
2019-02-21T05:37:45.337Z,0.00
2019-02-21T05:38:45.220Z,0.00
2019-02-21T05:39:45.130Z,0.00
2019-02-21T05:40:45.047Z,0.00
2019-02-21T05:41:44.961Z,0.00
2019-02-21T05:42:44.877Z,0.00
2019-02-21T05:43:44.799Z,0.00
2019-02-21T05:44:44.703Z,0.00
2019-02-21T05:45:46.785Z,0.00
2019-02-21T05:46:44.535Z,0.00
2019-02-21T05:47:44.508Z,0.00
2019-02-21T05:48:44.469Z,0.00
2019-02-21T05:49:44.284Z,0.00
2019-02-21T05:50:44.197Z,0.00
2019-02-21T05:51:44.116Z,0.00
2019-02-21T05:52:44.029Z,0.00
2019-02-21T05:53:43.954Z,0.00
2019-02-21T05:54:43.859Z,0.00
2019-02-21T05:55:43.776Z,0.00
2019-02-21T05:56:43.690Z,0.00
2019-02-21T05:57:43.679Z,0.00
2019-02-21T05:58:43.521Z,4.00
2019-02-21T05:59:43.437Z,0.00
2019-02-21T06:00:43.361Z,0.00
2019-02-21T06:01:43.269Z,4.00
2019-02-21T06:02:53.185Z,0.00
2019-02-21T06:03:43.092Z,4.00
2019-02-21T06:04:43.014Z,4.00
2019-02-21T06:05:42.933Z,4.00
2019-02-21T06:06:42.844Z,4.00
2019-02-21T06:07:42.758Z,4.00
2019-02-21T06:08:44.175Z,4.00
2019-02-21T06:09:42.596Z,8.00
2019-02-21T06:10:42.501Z,8.00
2019-02-21T06:11:42.418Z,8.00
2019-02-21T06:12:42.337Z,12.00
2019-02-21T06:13:44.641Z,12.00
2019-02-21T06:14:42.166Z,12.00
2019-02-21T06:15:42.085Z,16.00
2019-02-21T06:16:42.000Z,12.00
2019-02-21T06:17:41.944Z,16.00
2019-02-21T06:18:41.824Z,20.00
2019-02-21T06:19:41.741Z,20.00
2019-02-21T06:20:41.657Z,24.00
2019-02-21T06:21:41.576Z,24.00
2019-02-21T06:22:41.559Z,28.00
2019-02-21T06:23:41.401Z,32.00
2019-02-21T06:24:41.320Z,36.00
2019-02-21T06:25:50.998Z,36.00
2019-02-21T06:26:41.145Z,44.00
2019-02-21T06:27:41.066Z,44.00
2019-02-21T06:28:40.982Z,48.00
2019-02-21T06:29:40.897Z,52.00
2019-02-21T06:30:43.307Z,60.00
2019-02-21T06:31:40.724Z,60.00
2019-02-21T06:32:40.981Z,64.00
2019-02-21T06:33:40.559Z,72.00
2019-02-21T06:34:40.468Z,76.00
2019-02-21T06:35:40.385Z,80.00
2019-02-21T06:36:40.303Z,84.00
2019-02-21T06:37:40.217Z,96.00
2019-02-21T06:38:40.150Z,100.00
2019-02-21T06:39:40.048Z,112.00
2019-02-21T06:40:39.958Z,112.00
2019-02-21T06:41:42.478Z,116.00
2019-02-21T06:42:39.787Z,116.00
2019-02-21T06:43:39.702Z,116.00
2019-02-21T06:44:39.623Z,124.00
2019-02-21T06:45:39.546Z,128.00
2019-02-21T06:46:39.449Z,140.00
2019-02-21T06:47:39.371Z,164.00
2019-02-21T06:48:39.289Z,180.00
2019-02-21T06:49:39.200Z,192.00
2019-02-21T06:50:39.122Z,208.00
2019-02-21T06:51:39.035Z,220.00
2019-02-21T06:52:40.643Z,212.00
2019-02-21T06:53:38.860Z,200.00
2019-02-21T06:54:38.779Z,192.00
2019-02-21T06:55:38.692Z,180.00
2019-02-21T06:56:38.607Z,172.00
2019-02-21T06:57:38.525Z,168.00
2019-02-21T06:58:38.434Z,160.00
2019-02-21T06:59:43.327Z,152.00
2019-02-21T07:00:38.270Z,156.00
2019-02-21T07:01:38.187Z,160.00
2019-02-21T07:02:38.107Z,164.00
2019-02-21T07:03:38.013Z,152.00
2019-02-21T07:04:37.933Z,124.00
2019-02-21T07:05:37.858Z,92.00
2019-02-21T07:06:39.219Z,68.00
2019-02-21T07:07:37.685Z,60.00
2019-02-21T07:08:39.942Z,52.00
2019-02-21T07:09:37.504Z,56.00
2019-02-21T07:10:37.422Z,52.00
2019-02-21T07:11:37.338Z,56.00
2019-02-21T07:12:37.255Z,60.00
2019-02-21T07:13:37.172Z,60.00
2019-02-21T07:14:37.086Z,68.00
2019-02-21T07:15:37.002Z,76.00
2019-02-21T07:16:37.433Z,84.00
2019-02-21T07:17:36.835Z,96.00
2019-02-21T07:18:36.751Z,108.00
2019-02-21T07:19:36.664Z,124.00
2019-02-21T07:20:36.596Z,136.00
2019-02-21T07:21:36.726Z,136.00
2019-02-21T07:22:36.412Z,128.00
2019-02-21T07:23:43.457Z,124.00
2019-02-21T07:24:38.429Z,128.00
2019-02-21T07:25:36.157Z,128.00
2019-02-21T07:26:36.072Z,128.00
2019-02-21T07:27:35.990Z,128.00
2019-02-21T07:28:35.908Z,128.00
2019-02-21T07:29:38.530Z,124.00
2019-02-21T07:30:35.734Z,120.00
2019-02-21T07:31:35.653Z,116.00
2019-02-21T07:32:35.566Z,108.00
2019-02-21T07:33:35.485Z,104.00
2019-02-21T07:34:35.394Z,108.00
2019-02-21T07:35:35.314Z,108.00
2019-02-21T07:36:35.231Z,116.00
2019-02-21T07:37:35.146Z,116.00
2019-02-21T07:38:35.065Z,112.00
2019-02-21T07:39:36.285Z,108.00
2019-02-21T07:40:34.891Z,104.00
2019-02-21T07:41:34.810Z,100.00
2019-02-21T07:42:34.729Z,104.00
2019-02-21T07:43:34.638Z,116.00
2019-02-21T07:44:34.555Z,124.00
2019-02-21T07:45:36.317Z,128.00
2019-02-21T07:46:34.387Z,128.00
2019-02-21T07:47:34.305Z,128.00
2019-02-21T07:48:36.399Z,128.00
2019-02-21T07:49:34.131Z,128.00
2019-02-21T07:50:34.103Z,132.00
2019-02-21T07:51:35.911Z,136.00
2019-02-21T07:52:33.883Z,144.00
2019-02-21T07:53:33.794Z,152.00
2019-02-21T07:54:33.711Z,168.00
2019-02-21T07:55:33.629Z,188.00
2019-02-21T07:56:41.638Z,208.00
2019-02-21T07:57:33.461Z,224.00
2019-02-21T07:58:33.377Z,220.00
2019-02-21T07:59:33.299Z,228.00
2019-02-21T08:00:33.211Z,236.00
2019-02-21T08:01:33.126Z,252.00
2019-02-21T08:02:33.040Z,264.00
2019-02-21T08:03:43.811Z,272.00
2019-02-21T08:04:32.876Z,284.00
2019-02-21T08:05:32.792Z,284.00
2019-02-21T08:06:32.702Z,280.00
2019-02-21T08:07:32.622Z,272.00
2019-02-21T08:08:32.689Z,260.00
2019-02-21T08:09:32.469Z,252.00
2019-02-21T08:10:33.847Z,252.00
2019-02-21T08:11:32.283Z,260.00
2019-02-21T08:12:32.205Z,260.00
2019-02-21T08:13:32.118Z,252.00
2019-02-21T08:14:32.071Z,224.00
2019-02-21T08:15:31.957Z,208.00
2019-02-21T08:16:31.862Z,208.00
2019-02-21T08:17:31.792Z,220.00
2019-02-21T08:18:31.704Z,228.00
2019-02-21T08:19:31.613Z,224.00
2019-02-21T08:20:34.700Z,212.00
2019-02-21T08:21:31.473Z,212.00
2019-02-21T08:22:31.364Z,224.00
2019-02-21T08:23:32.473Z,236.00
2019-02-21T08:24:31.195Z,240.00
2019-02-21T08:25:31.111Z,240.00
2019-02-21T08:26:31.031Z,252.00
2019-02-21T08:27:30.944Z,252.00
2019-02-21T08:28:30.872Z,256.00
2019-02-21T08:29:30.780Z,292.00
2019-02-21T08:30:32.850Z,340.00
2019-02-21T08:31:30.609Z,384.00
2019-02-21T08:32:30.524Z,424.00
2019-02-21T08:33:30.448Z,464.00
2019-02-21T08:34:30.360Z,536.00
2019-02-21T08:35:30.280Z,568.00
2019-02-21T08:36:30.233Z,652.00
2019-02-21T08:37:30.111Z,724.00
2019-02-21T08:38:30.023Z,812.00
2019-02-21T08:39:29.943Z,1128.00
2019-02-21T08:40:29.855Z,952.00
2019-02-21T08:41:29.773Z,896.00
2019-02-21T08:42:29.692Z,1176.00
2019-02-21T08:43:29.602Z,1552.00
2019-02-21T08:44:29.554Z,1944.00
2019-02-21T08:45:29.439Z,1032.00
2019-02-21T08:46:29.364Z,1920.00
2019-02-21T08:47:29.275Z,1676.00
2019-02-21T08:48:29.187Z,1928.00
2019-02-21T08:49:29.105Z,1816.00
2019-02-21T08:50:29.022Z,1752.00
2019-02-21T08:51:28.944Z,1784.00
2019-02-21T08:52:30.186Z,1584.00
2019-02-21T08:53:28.804Z,852.00
2019-02-21T08:54:28.685Z,832.00
2019-02-21T08:55:28.622Z,1164.00
2019-02-21T08:56:29.967Z,1292.00
2019-02-21T08:57:28.445Z,1408.00
2019-02-21T08:58:28.369Z,792.00
2019-02-21T08:59:28.274Z,864.00
2019-02-21T09:00:28.202Z,1416.00
2019-02-21T09:01:28.112Z,1828.00
2019-02-21T09:02:28.034Z,1556.00
2019-02-21T09:03:27.941Z,1368.00
2019-02-21T09:04:28.090Z,1240.00
2019-02-21T09:05:27.780Z,1076.00
2019-02-21T09:06:27.699Z,960.00
2019-02-21T09:07:27.613Z,1032.00
2019-02-21T09:08:33.474Z,1392.00
2019-02-21T09:09:27.452Z,1112.00
2019-02-21T09:10:27.833Z,1212.00
2019-02-21T09:11:27.287Z,1924.00
2019-02-21T09:12:27.200Z,2100.00
2019-02-21T09:13:27.120Z,2324.00
2019-02-21T09:14:27.037Z,2316.00
2019-02-21T09:15:26.952Z,1996.00
2019-02-21T09:16:26.873Z,2280.00
2019-02-21T09:17:26.798Z,2472.00
2019-02-21T09:18:26.709Z,2496.00
2019-02-21T09:19:26.633Z,2520.00
2019-02-21T09:20:26.548Z,1852.00
2019-02-21T09:21:26.478Z,1712.00
2019-02-21T09:22:26.383Z,2064.00
2019-02-21T09:23:26.388Z,2032.00
2019-02-21T09:24:38.432Z,2588.00
2019-02-21T09:25:26.140Z,2532.00
2019-02-21T09:26:26.064Z,2488.00
2019-02-21T09:27:25.975Z,2524.00
2019-02-21T09:28:25.898Z,2512.00
2019-02-21T09:29:25.813Z,2500.00
2019-02-21T09:30:25.730Z,2456.00
2019-02-21T09:31:25.654Z,2532.00
2019-02-21T09:32:25.571Z,2480.00
2019-02-21T09:33:25.492Z,2524.00
2019-02-21T09:34:25.408Z,2552.00
2019-02-21T09:35:25.329Z,2492.00
2019-02-21T09:36:25.245Z,2580.00
2019-02-21T09:37:25.164Z,2548.00
2019-02-21T09:38:25.080Z,2564.00
2019-02-21T09:39:25.003Z,2580.00
2019-02-21T09:40:24.923Z,2196.00
2019-02-21T09:41:24.847Z,2592.00
2019-02-21T09:42:24.766Z,2628.00
2019-02-21T09:43:24.690Z,2612.00
2019-02-21T09:44:27.274Z,2632.00
2019-02-21T09:45:24.524Z,2672.00
2019-02-21T09:46:24.444Z,2680.00
2019-02-21T09:47:24.363Z,2696.00
2019-02-21T09:48:24.281Z,2700.00
2019-02-21T09:49:24.196Z,2688.00
2019-02-21T09:50:24.124Z,2708.00
2019-02-21T09:51:24.047Z,2412.00
2019-02-21T09:52:23.970Z,2456.00
2019-02-21T09:53:23.895Z,2764.00
2019-02-21T09:54:23.803Z,2772.00
2019-02-21T09:55:23.744Z,2752.00
2019-02-21T09:56:30.429Z,2780.00
2019-02-21T09:57:23.571Z,2820.00
2019-02-21T09:58:23.485Z,2800.00
2019-02-21T09:59:23.402Z,2784.00
2019-02-21T10:00:23.328Z,2800.00
2019-02-21T10:01:23.247Z,2788.00
2019-02-21T10:02:23.259Z,2780.00
2019-02-21T10:03:23.090Z,2880.00
2019-02-21T10:04:31.846Z,2860.00
2019-02-21T10:05:22.930Z,2780.00
2019-02-21T10:06:22.850Z,2828.00
2019-02-21T10:07:22.770Z,2760.00
2019-02-21T10:08:22.695Z,2832.00
2019-02-21T10:09:22.620Z,2920.00
2019-02-21T10:10:22.537Z,3000.00
2019-02-21T10:11:22.458Z,2992.00
2019-02-21T10:12:22.384Z,3148.00
2019-02-21T10:13:22.300Z,3164.00
2019-02-21T10:14:22.217Z,3404.00
2019-02-21T10:15:22.143Z,2184.00
2019-02-21T10:16:22.069Z,1980.00
2019-02-21T10:17:21.985Z,2036.00
2019-02-21T10:18:21.939Z,1624.00
2019-02-21T10:19:21.825Z,1744.00
2019-02-21T10:20:21.773Z,1620.00
2019-02-21T10:21:21.674Z,1480.00
2019-02-21T10:22:21.599Z,1492.00
2019-02-21T10:23:23.651Z,1524.00
2019-02-21T10:24:21.441Z,1788.00
2019-02-21T10:25:23.129Z,1512.00
2019-02-21T10:26:21.283Z,1324.00
2019-02-21T10:27:21.210Z,1176.00
2019-02-21T10:28:21.126Z,1096.00
2019-02-21T10:29:21.049Z,1040.00
2019-02-21T10:30:20.966Z,996.00
2019-02-21T10:31:20.893Z,964.00
2019-02-21T10:32:20.816Z,940.00
2019-02-21T10:33:20.736Z,936.00
2019-02-21T10:34:21.865Z,944.00
2019-02-21T10:35:20.582Z,928.00
2019-02-21T10:36:20.503Z,892.00
2019-02-21T10:37:20.425Z,876.00
2019-02-21T10:38:20.344Z,856.00
2019-02-21T10:39:20.271Z,824.00
2019-02-21T10:40:20.195Z,800.00
2019-02-21T10:41:20.115Z,780.00
2019-02-21T10:42:20.037Z,764.00
2019-02-21T10:43:19.961Z,736.00
2019-02-21T10:44:19.884Z,748.00
2019-02-21T10:45:19.810Z,788.00
2019-02-21T10:46:19.725Z,844.00
2019-02-21T10:47:19.647Z,892.00
2019-02-21T10:48:19.571Z,892.00
2019-02-21T10:49:19.493Z,844.00
2019-02-21T10:50:19.426Z,808.00
2019-02-21T10:51:19.331Z,800.00
2019-02-21T10:52:19.259Z,844.00
2019-02-21T10:53:19.180Z,900.00
2019-02-21T10:54:19.101Z,1008.00
2019-02-21T10:55:19.032Z,984.00
2019-02-21T10:56:18.943Z,956.00
2019-02-21T10:57:18.881Z,924.00
2019-02-21T10:58:18.793Z,908.00
2019-02-21T10:59:18.718Z,904.00
2019-02-21T11:00:18.641Z,924.00
2019-02-21T11:01:18.557Z,932.00
2019-02-21T11:02:18.482Z,880.00
2019-02-21T11:03:18.399Z,832.00
2019-02-21T11:04:18.331Z,820.00
2019-02-21T11:05:18.244Z,828.00
2019-02-21T11:06:18.167Z,824.00
2019-02-21T11:07:18.096Z,812.00
2019-02-21T11:08:18.010Z,788.00
2019-02-21T11:09:17.929Z,768.00
2019-02-21T11:10:19.155Z,768.00
2019-02-21T11:11:17.777Z,772.00
2019-02-21T11:12:17.702Z,772.00
2019-02-21T11:13:17.623Z,764.00
2019-02-21T11:14:17.546Z,744.00
2019-02-21T11:15:17.463Z,724.00
2019-02-21T11:16:17.384Z,712.00
2019-02-21T11:17:17.311Z,704.00
2019-02-21T11:18:17.250Z,700.00
2019-02-21T11:19:17.150Z,692.00
2019-02-21T11:20:17.076Z,688.00
2019-02-21T11:21:17.000Z,696.00
2019-02-21T11:22:16.925Z,712.00
2019-02-21T11:23:16.840Z,720.00
2019-02-21T11:24:16.771Z,732.00
2019-02-21T11:25:16.689Z,736.00
2019-02-21T11:26:16.607Z,760.00
2019-02-21T11:27:16.531Z,772.00
2019-02-21T11:28:16.448Z,780.00
2019-02-21T11:29:16.374Z,792.00
2019-02-21T11:30:16.301Z,784.00
2019-02-21T11:31:16.221Z,768.00
2019-02-21T11:32:16.204Z,760.00
2019-02-21T11:33:16.057Z,744.00
2019-02-21T11:34:15.987Z,728.00
2019-02-21T11:35:15.910Z,724.00
2019-02-21T11:36:15.828Z,708.00
2019-02-21T11:37:15.750Z,712.00
2019-02-21T11:38:15.676Z,716.00
2019-02-21T11:39:15.596Z,720.00
2019-02-21T11:40:15.522Z,732.00
2019-02-21T11:41:15.447Z,764.00
2019-02-21T11:42:15.361Z,784.00
2019-02-21T11:43:15.284Z,772.00
2019-02-21T11:44:15.207Z,756.00
2019-02-21T11:45:15.129Z,744.00
2019-02-21T11:46:15.060Z,732.00
2019-02-21T11:47:14.972Z,736.00
2019-02-21T11:48:14.897Z,748.00
2019-02-21T11:49:14.817Z,680.00
2019-02-21T11:50:14.744Z,636.00
2019-02-21T11:51:14.660Z,620.00
2019-02-21T11:52:14.585Z,624.00
2019-02-21T11:53:14.510Z,632.00
2019-02-21T11:54:16.001Z,616.00
2019-02-21T11:55:14.352Z,592.00
2019-02-21T11:56:15.786Z,580.00
2019-02-21T11:57:14.196Z,604.00
2019-02-21T11:58:14.118Z,628.00
2019-02-21T11:59:16.064Z,636.00
2019-02-21T12:00:13.962Z,636.00
2019-02-21T12:01:13.883Z,636.00
2019-02-21T12:02:13.805Z,628.00
2019-02-21T12:03:13.739Z,616.00
2019-02-21T12:04:13.654Z,612.00
2019-02-21T12:05:17.405Z,612.00
2019-02-21T12:06:13.491Z,612.00
2019-02-21T12:07:13.421Z,608.00
2019-02-21T12:08:13.340Z,612.00
2019-02-21T12:09:13.262Z,620.00
2019-02-21T12:10:13.182Z,636.00
2019-02-21T12:11:13.103Z,660.00
2019-02-21T12:12:13.029Z,680.00
2019-02-21T12:13:12.950Z,696.00
2019-02-21T12:14:12.874Z,720.00
2019-02-21T12:15:12.786Z,736.00
2019-02-21T12:16:12.718Z,752.00
2019-02-21T12:17:12.640Z,704.00
2019-02-21T12:18:12.559Z,764.00
2019-02-21T12:19:12.481Z,648.00
2019-02-21T12:20:12.406Z,632.00
2019-02-21T12:21:12.329Z,636.00
2019-02-21T12:22:12.248Z,648.00
2019-02-21T12:23:12.175Z,668.00
2019-02-21T12:24:12.093Z,692.00
2019-02-21T12:25:12.015Z,716.00
2019-02-21T12:26:11.939Z,752.00
2019-02-21T12:27:11.874Z,768.00
2019-02-21T12:28:11.779Z,872.00
2019-02-21T12:29:11.707Z,860.00
2019-02-21T12:30:11.625Z,784.00
2019-02-21T12:31:11.574Z,796.00
2019-02-21T12:32:11.470Z,820.00
2019-02-21T12:33:11.390Z,876.00
2019-02-21T12:34:11.324Z,948.00
2019-02-21T12:35:11.238Z,944.00
2019-02-21T12:36:11.155Z,1008.00
2019-02-21T12:37:11.079Z,1064.00
2019-02-21T12:38:10.999Z,1776.00
2019-02-21T12:39:10.927Z,1184.00
2019-02-21T12:40:10.847Z,1204.00
2019-02-21T12:41:10.857Z,1248.00
2019-02-21T12:42:10.691Z,1204.00
2019-02-21T12:43:10.618Z,1312.00
2019-02-21T12:44:10.542Z,1348.00
2019-02-21T12:45:10.460Z,1408.00
2019-02-21T12:46:10.383Z,1244.00
2019-02-21T12:47:10.300Z,1164.00
2019-02-21T12:48:10.225Z,1072.00